Time;durP1;ratioP1;P1;durP2;ratioP2;P2;SDS_P1;SDS_P2;PMS_P1;PMS_P2;Temp;Humidity;BMP_temperature;BMP_pressure;BME280_temperature;BME280_humidity;BME280_pressure;Samples;Min_cycle;Max_cycle;Signal;HPM_P1;HPM_P2
2022/09/23 00:01:02;;;;;;;1.73;0.90;;;;;;;;;;2087848;28;20032;-80
2022/09/23 00:02:22;;;;;;;1.48;0.73;;;;;;;;;;2086510;28;20036;-80
2022/09/23 00:03:41;;;;;;;1.92;0.93;;;;;;;;;;2086972;28;20025;-80
2022/09/23 00:05:00;;;;;;;2.20;0.93;;;;;;;;;;2087778;28;20029;-80
2022/09/23 00:06:20;;;;;;;4.60;1.05;;;;;;;;;;2087199;28;20029;-80
2022/09/23 00:07:39;;;;;;;0.98;0.80;;;;;;;;;;2087576;28;20029;-80
2022/09/23 00:08:58;;;;;;;1.05;0.90;;;;;;;;;;2088141;28;20041;-80
2022/09/23 00:10:17;;;;;;;2.88;0.90;;;;;;;;;;2086671;28;20071;-80
2022/09/23 00:11:37;;;;;;;2.28;1.23;;;;;;;;;;2086530;28;20033;-80
2022/09/23 00:12:56;;;;;;;4.13;0.85;;;;;;;;;;2083516;28;20029;-80
2022/09/23 00:14:16;;;;;;;3.60;1.00;;;;;;;;;;2083387;28;20064;-80
2022/09/23 00:15:38;;;;;;;3.67;1.10;;;;;;;;;;2088220;28;20116;-80
2022/09/23 00:16:57;;;;;;;1.30;0.82;;;;;;;;;;2087936;28;20025;-80
2022/09/23 00:18:16;;;;;;;7.25;0.95;;;;;;;;;;2083941;28;20041;-80
2022/09/23 00:19:37;;;;;;;4.43;1.17;;;;;;;;;;2087880;28;20433;-80
2022/09/23 00:20:56;;;;;;;1.95;1.00;;;;;;;;;;2087412;28;20029;-80
2022/09/23 00:22:15;;;;;;;2.67;0.80;;;;;;;;;;2085234;28;20385;-80
2022/09/23 00:23:35;;;;;;;2.53;0.93;;;;;;;;;;2085546;28;20060;-80
2022/09/23 00:24:53;;;;;;;1.63;0.90;;;;;;;;;;2086860;28;20029;-80
2022/09/23 00:26:14;;;;;;;3.40;1.20;;;;;;;;;;2085105;28;20029;-80
2022/09/23 00:27:34;;;;;;;2.60;0.77;;;;;;;;;;2089153;28;20037;-81
2022/09/23 00:28:53;;;;;;;1.77;0.90;;;;;;;;;;2084107;28;20033;-80
2022/09/23 00:30:12;;;;;;;3.28;1.08;;;;;;;;;;2084666;28;20033;-81
2022/09/23 00:31:31;;;;;;;2.33;1.05;;;;;;;;;;2083990;28;20131;-80
2022/09/23 00:32:51;;;;;;;1.58;1.23;;;;;;;;;;2087113;28;20032;-81
2022/09/23 00:34:11;;;;;;;1.80;1.00;;;;;;;;;;2085809;28;20060;-80
2022/09/23 00:35:29;;;;;;;3.88;0.98;;;;;;;;;;2090807;28;20573;-81
2022/09/23 00:36:48;;;;;;;2.13;1.00;;;;;;;;;;2082447;28;20041;-81
2022/09/23 00:38:07;;;;;;;1.85;0.93;;;;;;;;;;2086176;28;20025;-80
2022/09/23 00:39:26;;;;;;;3.95;1.48;;;;;;;;;;2085984;28;20020;-79
2022/09/23 00:40:45;;;;;;;2.90;1.23;;;;;;;;;;2082420;28;20110;-80
2022/09/23 00:42:03;;;;;;;1.00;0.88;;;;;;;;;;2084607;28;20021;-80
2022/09/23 00:43:39;;;;;;;1.27;1.00;;;;;;;;;;2087263;28;20044;-80
2022/09/23 00:44:58;;;;;;;3.13;1.30;;;;;;;;;;2087714;28;20025;-80
2022/09/23 00:46:24;;;;;;;1.67;1.10;;;;;;;;;;2088023;28;20111;-81
2022/09/23 00:47:49;;;;;;;1.27;1.17;;;;;;;;;;2087576;28;20102;-81
2022/09/23 00:49:12;;;;;;;2.15;1.20;;;;;;;;;;2086324;28;20033;-80
2022/09/23 00:50:41;;;;;;;3.55;1.00;;;;;;;;;;2095469;28;20517;-80
2022/09/23 00:52:04;;;;;;;1.77;0.98;;;;;;;;;;2087156;28;20040;-80
2022/09/23 00:53:25;;;;;;;4.68;1.45;;;;;;;;;;2086323;28;20033;-80
2022/09/23 00:54:45;;;;;;;1.15;1.00;;;;;;;;;;2087455;28;20051;-80
2022/09/23 00:56:06;;;;;;;1.48;1.38;;;;;;;;;;2086904;28;20064;-81
2022/09/23 00:57:26;;;;;;;3.40;1.17;;;;;;;;;;2086722;28;20032;-81
2022/09/23 00:58:45;;;;;;;3.65;1.27;;;;;;;;;;2085557;28;20566;-81
2022/09/23 01:00:07;;;;;;;2.97;1.35;;;;;;;;;;2086779;28;20037;-81
2022/09/23 01:01:26;;;;;;;1.52;1.10;;;;;;;;;;2086929;28;20481;-80
2022/09/23 01:02:45;;;;;;;2.95;1.40;;;;;;;;;;2087074;28;20029;-80
2022/09/23 01:04:05;;;;;;;2.25;1.20;;;;;;;;;;2085956;28;20104;-80
2022/09/23 01:05:24;;;;;;;3.30;1.67;;;;;;;;;;2085122;28;20445;-81
2022/09/23 01:06:43;;;;;;;2.28;1.45;;;;;;;;;;2087400;28;20560;-81
2022/09/23 01:08:03;;;;;;;2.72;0.93;;;;;;;;;;2087299;28;20029;-81
2022/09/23 01:09:23;;;;;;;3.75;1.10;;;;;;;;;;2087272;28;20033;-80
2022/09/23 01:10:47;;;;;;;1.60;1.20;;;;;;;;;;2086941;28;20060;-80
2022/09/23 01:12:12;;;;;;;3.22;1.30;;;;;;;;;;2088640;28;20029;-80
2022/09/23 01:13:40;;;;;;;1.85;1.10;;;;;;;;;;2088886;28;20037;-81
2022/09/23 01:15:02;;;;;;;3.97;1.40;;;;;;;;;;2087494;28;20475;-80
2022/09/23 01:16:24;;;;;;;1.20;1.00;;;;;;;;;;2087468;28;20120;-81
2022/09/23 01:17:43;;;;;;;1.40;1.30;;;;;;;;;;2087290;28;20525;-80
2022/09/23 01:19:21;;;;;;;1.48;1.38;;;;;;;;;;2086995;28;20454;-80
2022/09/23 01:20:50;;;;;;;2.40;1.20;;;;;;;;;;2095193;28;20167;-81
2022/09/23 01:22:14;;;;;;;3.05;1.50;;;;;;;;;;2089446;28;20394;-80
2022/09/23 01:23:35;;;;;;;2.17;0.90;;;;;;;;;;2086857;28;20025;-80
2022/09/23 01:25:13;;;;;;;1.30;1.20;;;;;;;;;;2086776;28;20029;-80
2022/09/23 01:26:51;;;;;;;2.40;1.00;;;;;;;;;;2087400;28;20021;-80
2022/09/23 01:28:13;;;;;;;3.97;0.95;;;;;;;;;;2096082;28;20036;-80
2022/09/23 01:29:32;;;;;;;2.35;1.08;;;;;;;;;;2093182;28;20025;-80
2022/09/23 01:31:04;;;;;;;2.78;1.15;;;;;;;;;;2090023;28;20386;-80
2022/09/23 01:32:30;;;;;;;2.75;1.17;;;;;;;;;;2089064;28;20036;-81
2022/09/23 01:33:49;;;;;;;1.10;1.00;;;;;;;;;;2087855;28;20498;-80
2022/09/23 01:35:08;;;;;;;2.80;1.15;;;;;;;;;;2083357;28;20052;-80
2022/09/23 01:36:38;;;;;;;2.05;1.13;;;;;;;;;;2088711;28;20029;-80
2022/09/23 01:37:57;;;;;;;4.15;1.13;;;;;;;;;;2087772;28;20491;-80
2022/09/23 01:39:22;;;;;;;1.55;1.20;;;;;;;;;;2088309;28;20025;-80
2022/09/23 01:40:44;;;;;;;2.80;1.60;;;;;;;;;;2089212;28;20514;-80
2022/09/23 01:42:06;;;;;;;2.60;1.20;;;;;;;;;;2086179;28;20025;-81
2022/09/23 01:43:28;;;;;;;2.38;1.20;;;;;;;;;;2093417;28;20040;-80
2022/09/23 01:44:52;;;;;;;1.55;1.30;;;;;;;;;;2086917;28;20032;-80
2022/09/23 01:46:18;;;;;;;3.67;1.30;;;;;;;;;;2088107;28;20029;-80
2022/09/23 01:47:48;;;;;;;5.07;1.45;;;;;;;;;;2090302;28;20025;-81
2022/09/23 01:49:12;;;;;;;1.48;1.23;;;;;;;;;;2087361;28;20033;-80
2022/09/23 01:52:15;;;;;;;3.05;1.60;;;;;;;;;;2088980;28;19913;-80
2022/09/23 01:53:44;;;;;;;2.88;1.50;;;;;;;;;;2088707;28;20316;-80
2022/09/23 01:55:15;;;;;;;2.45;1.48;;;;;;;;;;2084091;28;20489;-80
2022/09/23 01:56:41;;;;;;;3.33;1.73;;;;;;;;;;2087755;28;20482;-80
2022/09/23 01:58:08;;;;;;;1.85;1.10;;;;;;;;;;2089310;28;20032;-81
2022/09/23 01:59:34;;;;;;;4.65;1.33;;;;;;;;;;2087271;28;20064;-80
2022/09/23 02:01:05;;;;;;;1.58;1.40;;;;;;;;;;2087000;28;20025;-81
2022/09/23 02:02:32;;;;;;;2.05;1.38;;;;;;;;;;2087681;28;20444;-80
2022/09/23 02:03:55;;;;;;;2.90;1.33;;;;;;;;;;2085839;28;20037;-80
2022/09/23 02:05:17;;;;;;;2.22;1.30;;;;;;;;;;2082888;28;20562;-80
2022/09/23 02:06:40;;;;;;;2.47;1.30;;;;;;;;;;2086097;28;20021;-80
2022/09/23 02:08:06;;;;;;;2.27;1.50;;;;;;;;;;2082949;28;20025;-80
2022/09/23 02:09:27;;;;;;;2.80;1.30;;;;;;;;;;2084119;28;20444;-80
2022/09/23 02:10:48;;;;;;;1.92;1.30;;;;;;;;;;2084619;28;20111;-80
2022/09/23 02:12:11;;;;;;;2.15;1.50;;;;;;;;;;2083740;28;20529;-79
2022/09/23 02:13:50;;;;;;;1.95;1.40;;;;;;;;;;2089116;28;20036;-80
2022/09/23 02:15:21;;;;;;;1.85;1.50;;;;;;;;;;2086128;28;20072;-80
2022/09/23 02:16:46;;;;;;;2.92;1.38;;;;;;;;;;2097952;28;20504;-80
2022/09/23 02:18:25;;;;;;;1.83;1.13;;;;;;;;;;2093395;28;20409;-80
2022/09/23 02:19:46;;;;;;;1.92;1.27;;;;;;;;;;2087174;28;20013;-80
2022/09/23 02:21:07;;;;;;;1.88;1.50;;;;;;;;;;2087399;28;20047;-80
2022/09/23 02:22:46;;;;;;;2.63;1.60;;;;;;;;;;2089486;28;20038;-80
2022/09/23 02:24:08;;;;;;;2.35;1.40;;;;;;;;;;2083774;28;20063;-80
2022/09/23 02:25:34;;;;;;;2.38;1.40;;;;;;;;;;2087180;28;20539;-80
2022/09/23 02:26:59;;;;;;;2.72;1.50;;;;;;;;;;2094385;28;20029;-80
2022/09/23 02:28:23;;;;;;;4.20;1.50;;;;;;;;;;2088948;28;20477;-80
2022/09/23 02:30:01;;;;;;;2.72;1.45;;;;;;;;;;2085068;28;20037;-80
2022/09/23 02:31:26;;;;;;;3.60;1.75;;;;;;;;;;2090912;28;20441;-80
2022/09/23 02:32:45;;;;;;;2.10;1.55;;;;;;;;;;2096003;28;20040;-80
2022/09/23 02:34:04;;;;;;;1.55;1.45;;;;;;;;;;2091508;28;20047;-80
2022/09/23 02:35:35;;;;;;;2.42;1.42;;;;;;;;;;2087297;28;20059;-80
2022/09/23 02:37:03;;;;;;;4.07;1.45;;;;;;;;;;2092256;28;20020;-80
2022/09/23 02:38:35;;;;;;;4.20;1.60;;;;;;;;;;2089754;28;20041;-80
2022/09/23 02:40:08;;;;;;;2.50;1.67;;;;;;;;;;2087988;28;20033;-80
2022/09/23 02:41:33;;;;;;;2.00;1.40;;;;;;;;;;2085288;28;20041;-80
2022/09/23 02:43:18;;;;;;;2.88;1.80;;;;;;;;;;2089242;28;20087;-81
2022/09/23 02:44:37;;;;;;;2.88;1.48;;;;;;;;;;2089125;28;20474;-80
2022/09/23 02:45:56;;;;;;;3.00;1.65;;;;;;;;;;2083894;28;20033;-80
2022/09/23 02:47:18;;;;;;;2.83;1.65;;;;;;;;;;2084125;28;20037;-80
2022/09/23 02:48:42;;;;;;;1.70;1.60;;;;;;;;;;2085887;28;20025;-80
2022/09/23 02:50:01;;;;;;;2.80;1.48;;;;;;;;;;2087999;28;20588;-80
2022/09/23 02:51:22;;;;;;;1.75;1.65;;;;;;;;;;2089205;28;20037;-80
2022/09/23 02:52:41;;;;;;;1.17;1.08;;;;;;;;;;2088298;28;20021;-80
2022/09/23 02:54:02;;;;;;;3.05;1.40;;;;;;;;;;2086470;28;20104;-80
2022/09/23 02:55:22;;;;;;;2.20;1.35;;;;;;;;;;2087590;28;20037;-80
2022/09/23 02:56:41;;;;;;;2.55;1.55;;;;;;;;;;2084283;28;20029;-80
2022/09/23 02:58:01;;;;;;;2.30;1.50;;;;;;;;;;2089177;28;20036;-80
2022/09/23 02:59:21;;;;;;;6.07;1.90;;;;;;;;;;2086792;28;20064;-80
2022/09/23 03:00:43;;;;;;;2.00;1.45;;;;;;;;;;2083435;28;20029;-80
2022/09/23 03:02:21;;;;;;;2.70;1.77;;;;;;;;;;2093834;28;20033;-80
2022/09/23 03:03:54;;;;;;;2.20;1.38;;;;;;;;;;2087849;28;20636;-80
2022/09/23 03:05:30;;;;;;;2.75;1.45;;;;;;;;;;2089357;28;20032;-80
2022/09/23 03:06:54;;;;;;;3.35;1.50;;;;;;;;;;2084789;28;20025;-80
2022/09/23 03:08:24;;;;;;;1.50;1.40;;;;;;;;;;2084835;28;20497;-80
2022/09/23 03:09:51;;;;;;;6.57;1.77;;;;;;;;;;2087589;28;20029;-80
2022/09/23 03:11:11;;;;;;;1.40;1.30;;;;;;;;;;2088273;28;20025;-80
2022/09/23 03:12:39;;;;;;;1.48;1.38;;;;;;;;;;2088090;28;20428;-80
2022/09/23 03:14:05;;;;;;;2.25;1.35;;;;;;;;;;2087524;28;20036;-80
2022/09/23 03:15:36;;;;;;;1.55;1.20;;;;;;;;;;2088520;28;20021;-80
2022/09/23 03:17:11;;;;;;;1.80;1.30;;;;;;;;;;2086774;28;20033;-80
2022/09/23 03:19:03;;;;;;;2.53;1.63;;;;;;;;;;2085130;28;20029;-80
2022/09/23 03:20:28;;;;;;;2.90;1.40;;;;;;;;;;2060546;28;20057;-80
2022/09/23 03:21:47;;;;;;;1.55;1.40;;;;;;;;;;2088412;28;20029;-80
2022/09/23 03:23:07;;;;;;;4.45;1.65;;;;;;;;;;2089067;28;20029;-81
2022/09/23 03:24:30;;;;;;;4.40;1.50;;;;;;;;;;2088809;28;20025;-80
2022/09/23 03:25:49;;;;;;;2.13;1.70;;;;;;;;;;2087131;28;20104;-80
2022/09/23 03:27:12;;;;;;;2.38;1.50;;;;;;;;;;2089345;28;20029;-80
2022/09/23 03:28:34;;;;;;;2.60;1.75;;;;;;;;;;2085980;28;20029;-80
2022/09/23 03:29:54;;;;;;;1.40;1.30;;;;;;;;;;2091144;28;20028;-80
2022/09/23 03:31:14;;;;;;;2.00;1.45;;;;;;;;;;2090119;28;20041;-80
2022/09/23 03:32:33;;;;;;;1.60;1.50;;;;;;;;;;2089358;28;20047;-80
2022/09/23 03:33:54;;;;;;;1.80;1.70;;;;;;;;;;2087157;28;20100;-80
2022/09/23 03:35:13;;;;;;;2.58;1.88;;;;;;;;;;2085300;28;20021;-80
2022/09/23 03:36:50;;;;;;;1.60;1.50;;;;;;;;;;2085678;28;20060;-80
2022/09/23 03:38:16;;;;;;;3.92;1.70;;;;;;;;;;2088007;28;20029;-80
2022/09/23 03:39:39;;;;;;;2.50;1.35;;;;;;;;;;2088917;28;20478;-80
2022/09/23 03:41:00;;;;;;;4.57;1.50;;;;;;;;;;2088058;28;20409;-80
2022/09/23 03:42:21;;;;;;;2.30;1.23;;;;;;;;;;2087036;28;20020;-80
2022/09/23 03:43:40;;;;;;;3.75;2.03;;;;;;;;;;2087989;28;20025;-80
2022/09/23 03:45:00;;;;;;;1.85;1.33;;;;;;;;;;2087217;28;20033;-80
2022/09/23 03:46:19;;;;;;;2.10;1.30;;;;;;;;;;2082666;28;20034;-80
2022/09/23 03:47:38;;;;;;;4.75;2.10;;;;;;;;;;2088702;28;20025;-80
2022/09/23 03:49:08;;;;;;;2.10;1.88;;;;;;;;;;2087538;28;20033;-80
2022/09/23 03:50:27;;;;;;;1.90;1.60;;;;;;;;;;2093113;28;20052;-80
2022/09/23 03:51:46;;;;;;;2.47;1.85;;;;;;;;;;2090618;28;20064;-80
2022/09/23 03:53:05;;;;;;;6.47;2.00;;;;;;;;;;2089801;28;20028;-80
2022/09/23 03:54:28;;;;;;;6.22;1.77;;;;;;;;;;2087205;28;20068;-80
2022/09/23 03:55:47;;;;;;;2.90;1.55;;;;;;;;;;2086765;28;20064;-80
2022/09/23 03:57:06;;;;;;;2.50;1.95;;;;;;;;;;2090778;28;20028;-80
2022/09/23 03:58:25;;;;;;;3.90;1.60;;;;;;;;;;2089531;28;20033;-80
2022/09/23 03:59:44;;;;;;;4.57;1.75;;;;;;;;;;2088150;28;20419;-80
2022/09/23 04:01:02;;;;;;;4.53;1.90;;;;;;;;;;2082450;28;20032;-80
2022/09/23 04:02:22;;;;;;;1.77;1.67;;;;;;;;;;2087527;28;20032;-81
2022/09/23 04:03:41;;;;;;;1.65;1.55;;;;;;;;;;2087842;28;20029;-80
2022/09/23 04:05:00;;;;;;;4.25;1.80;;;;;;;;;;2087882;28;20021;-81
2022/09/23 04:06:19;;;;;;;3.05;1.77;;;;;;;;;;2087858;28;20433;-81
2022/09/23 04:07:38;;;;;;;4.15;2.03;;;;;;;;;;2091855;28;20501;-80
2022/09/23 04:08:57;;;;;;;3.50;1.63;;;;;;;;;;2090773;28;20053;-80
2022/09/23 04:10:16;;;;;;;3.75;1.85;;;;;;;;;;2088412;28;20060;-81
2022/09/23 04:11:36;;;;;;;1.73;1.63;;;;;;;;;;2088723;28;20486;-80
2022/09/23 04:12:55;;;;;;;7.28;2.10;;;;;;;;;;2088447;28;20514;-81
2022/09/23 04:14:14;;;;;;;2.40;1.55;;;;;;;;;;2086944;28;20065;-81
2022/09/23 04:15:33;;;;;;;2.38;1.65;;;;;;;;;;2086517;28;20037;-81
2022/09/23 04:16:51;;;;;;;2.13;1.52;;;;;;;;;;2085192;28;20033;-81
2022/09/23 04:18:10;;;;;;;1.90;1.75;;;;;;;;;;2086434;28;20151;-84
2022/09/23 04:19:29;;;;;;;2.00;1.90;;;;;;;;;;2087535;28;20033;-81
2022/09/23 04:20:48;;;;;;;1.42;1.33;;;;;;;;;;2087729;28;20033;-82
2022/09/23 04:22:07;;;;;;;1.83;1.65;;;;;;;;;;2086519;28;20037;-80
2022/09/23 04:23:26;;;;;;;2.20;1.85;;;;;;;;;;2087402;28;20025;-81
2022/09/23 04:24:45;;;;;;;2.22;2.00;;;;;;;;;;2087921;28;20021;-81
2022/09/23 04:26:05;;;;;;;3.63;1.60;;;;;;;;;;2086370;28;20429;-80
2022/09/23 04:27:24;;;;;;;1.70;1.60;;;;;;;;;;2087565;28;20025;-79
2022/09/23 04:28:43;;;;;;;4.63;2.00;;;;;;;;;;2084127;28;20064;-79
2022/09/23 04:30:03;;;;;;;4.20;1.98;;;;;;;;;;2083699;28;20060;-79
2022/09/23 04:31:22;;;;;;;3.75;1.90;;;;;;;;;;2086237;28;20032;-79
2022/09/23 04:32:41;;;;;;;3.00;2.28;;;;;;;;;;2087989;28;20157;-79
2022/09/23 04:34:00;;;;;;;3.70;2.30;;;;;;;;;;2087853;28;20025;-80
2022/09/23 04:35:19;;;;;;;2.90;2.28;;;;;;;;;;2087792;28;20056;-80
2022/09/23 04:36:38;;;;;;;7.82;2.42;;;;;;;;;;2088011;28;20025;-79
2022/09/23 04:37:57;;;;;;;4.38;2.03;;;;;;;;;;2085387;28;20457;-79
2022/09/23 04:39:15;;;;;;;3.33;2.13;;;;;;;;;;2091670;28;20043;-80
2022/09/23 04:40:35;;;;;;;2.53;1.90;;;;;;;;;;2089939;28;20021;-83
2022/09/23 04:41:54;;;;;;;4.65;2.10;;;;;;;;;;2087229;28;20029;-80
2022/09/23 04:43:14;;;;;;;2.78;1.77;;;;;;;;;;2085394;28;20057;-80
2022/09/23 04:44:34;;;;;;;3.33;1.95;;;;;;;;;;2089331;28;20401;-83
2022/09/23 04:45:59;;;;;;;3.42;2.17;;;;;;;;;;2088774;28;20418;-82
2022/09/23 04:47:18;;;;;;;3.90;1.92;;;;;;;;;;2085733;28;20517;-81
2022/09/23 04:48:38;;;;;;;3.90;2.00;;;;;;;;;;2086438;28;20029;-79
2022/09/23 04:49:57;;;;;;;6.80;2.28;;;;;;;;;;2085470;28;20037;-81
2022/09/23 04:51:17;;;;;;;4.13;1.90;;;;;;;;;;2085996;28;20025;-81
2022/09/23 04:52:36;;;;;;;3.65;1.85;;;;;;;;;;2086576;28;20037;-81
2022/09/23 04:53:55;;;;;;;2.10;1.67;;;;;;;;;;2087256;28;20475;-82
2022/09/23 04:55:14;;;;;;;3.10;1.85;;;;;;;;;;2088411;28;20037;-82
2022/09/23 04:56:33;;;;;;;5.43;2.10;;;;;;;;;;2085696;28;20033;-80
2022/09/23 04:57:52;;;;;;;1.73;1.60;;;;;;;;;;2082832;28;20033;-80
2022/09/23 04:59:11;;;;;;;2.05;1.88;;;;;;;;;;2081868;28;20041;-79
2022/09/23 05:00:30;;;;;;;2.15;1.50;;;;;;;;;;2086116;28;20100;-78
2022/09/23 05:01:50;;;;;;;2.97;1.90;;;;;;;;;;2084759;28;20029;-77
2022/09/23 05:03:09;;;;;;;4.53;1.63;;;;;;;;;;2085658;28;20029;-78
2022/09/23 05:04:30;;;;;;;4.05;1.50;;;;;;;;;;2086835;28;20510;-78
2022/09/23 05:05:49;;;;;;;2.83;1.90;;;;;;;;;;2086279;28;20029;-77
2022/09/23 05:07:08;;;;;;;1.60;1.50;;;;;;;;;;2090815;28;20100;-78
2022/09/23 05:08:27;;;;;;;2.10;1.73;;;;;;;;;;2089274;28;20033;-80
2022/09/23 05:09:46;;;;;;;2.60;1.20;;;;;;;;;;2088295;28;20021;-78
2022/09/23 05:11:05;;;;;;;2.63;1.67;;;;;;;;;;2089744;28;20068;-78
2022/09/23 05:12:24;;;;;;;4.32;1.60;;;;;;;;;;2088620;28;20033;-78
2022/09/23 05:13:47;;;;;;;2.63;2.05;;;;;;;;;;2084310;28;20033;-78
2022/09/23 05:15:06;;;;;;;2.92;1.50;;;;;;;;;;2088404;28;20029;-80
2022/09/23 05:16:26;;;;;;;3.05;1.80;;;;;;;;;;2088558;28;20207;-78
2022/09/23 05:17:44;;;;;;;3.33;1.35;;;;;;;;;;2089355;28;20507;-78
2022/09/23 05:19:03;;;;;;;2.40;1.55;;;;;;;;;;2087467;28;20025;-80
2022/09/23 05:20:22;;;;;;;2.47;1.70;;;;;;;;;;2085221;28;20029;-78
2022/09/23 05:21:42;;;;;;;4.32;1.80;;;;;;;;;;2085211;28;20111;-78
2022/09/23 05:23:00;;;;;;;1.83;1.50;;;;;;;;;;2088013;28;20033;-79
2022/09/23 05:24:20;;;;;;;3.80;1.83;;;;;;;;;;2088819;28;20033;-79
2022/09/23 05:25:41;;;;;;;3.15;1.77;;;;;;;;;;2087383;28;20021;-78
2022/09/23 05:27:00;;;;;;;2.70;1.70;;;;;;;;;;2086341;28;20029;-77
2022/09/23 05:28:19;;;;;;;4.95;2.15;;;;;;;;;;2078928;28;20033;-78
2022/09/23 05:29:38;;;;;;;2.80;1.60;;;;;;;;;;2084491;28;20104;-79
2022/09/23 05:31:04;;;;;;;2.65;2.20;;;;;;;;;;2085773;28;20025;-78
2022/09/23 05:32:23;;;;;;;3.90;1.90;;;;;;;;;;2088692;28;20510;-78
2022/09/23 05:33:43;;;;;;;4.00;1.83;;;;;;;;;;2086627;28;20033;-79
2022/09/23 05:35:03;;;;;;;1.85;1.75;;;;;;;;;;2088374;28;20033;-80
2022/09/23 05:36:23;;;;;;;4.50;2.05;;;;;;;;;;2091266;28;20021;-79
2022/09/23 05:37:42;;;;;;;2.97;1.70;;;;;;;;;;2090884;28;20037;-80
2022/09/23 05:39:01;;;;;;;4.15;1.77;;;;;;;;;;2086295;28;20487;-79
2022/09/23 05:40:20;;;;;;;3.03;2.10;;;;;;;;;;2088069;28;20041;-79
2022/09/23 05:41:40;;;;;;;4.13;1.75;;;;;;;;;;2088071;28;20057;-80
2022/09/23 05:42:59;;;;;;;4.88;2.28;;;;;;;;;;2089860;28;20063;-81
2022/09/23 05:44:18;;;;;;;2.72;1.90;;;;;;;;;;2091249;28;20496;-80
2022/09/23 05:45:37;;;;;;;1.58;1.48;;;;;;;;;;2088804;28;20385;-80
2022/09/23 05:46:56;;;;;;;2.80;1.67;;;;;;;;;;2087836;28;20033;-80
2022/09/23 05:48:15;;;;;;;2.45;1.77;;;;;;;;;;2089431;28;20025;-79
2022/09/23 05:49:35;;;;;;;2.40;1.58;;;;;;;;;;2089026;28;20024;-82
2022/09/23 05:50:54;;;;;;;2.83;2.10;;;;;;;;;;2091129;28;20048;-81
2022/09/23 05:52:13;;;;;;;3.40;2.05;;;;;;;;;;2097333;28;20029;-81
2022/09/23 05:53:32;;;;;;;5.18;2.03;;;;;;;;;;2090465;28;20561;-80
2022/09/23 05:54:52;;;;;;;4.25;1.92;;;;;;;;;;2092090;28;20398;-81
2022/09/23 05:56:12;;;;;;;4.85;1.60;;;;;;;;;;2096827;28;20009;-80
2022/09/23 05:57:31;;;;;;;3.95;1.75;;;;;;;;;;2096521;28;20028;-79
2022/09/23 05:58:51;;;;;;;2.67;2.47;;;;;;;;;;2089133;28;20037;-79
2022/09/23 06:00:10;;;;;;;6.28;1.80;;;;;;;;;;2086298;28;20453;-81
2022/09/23 06:01:32;;;;;;;3.83;1.90;;;;;;;;;;2089731;28;20033;-81
2022/09/23 06:02:51;;;;;;;2.72;1.60;;;;;;;;;;2092130;28;20021;-81
2022/09/23 06:04:11;;;;;;;4.38;1.77;;;;;;;;;;2086647;28;20029;-80
2022/09/23 06:05:30;;;;;;;2.65;1.73;;;;;;;;;;2086387;28;20025;-80
2022/09/23 06:06:49;;;;;;;4.75;2.10;;;;;;;;;;2088859;28;20482;-81
2022/09/23 06:08:09;;;;;;;2.97;2.28;;;;;;;;;;2090283;28;20029;-80
2022/09/23 06:09:28;;;;;;;4.75;1.92;;;;;;;;;;2088556;28;20056;-80
2022/09/23 06:10:48;;;;;;;2.30;1.65;;;;;;;;;;2089814;28;20033;-81
2022/09/23 06:12:07;;;;;;;4.20;1.90;;;;;;;;;;2089079;28;20103;-81
2022/09/23 06:13:26;;;;;;;2.65;1.50;;;;;;;;;;2087385;28;20093;-80
2022/09/23 06:14:45;;;;;;;4.57;1.75;;;;;;;;;;2087431;28;20036;-80
2022/09/23 06:16:06;;;;;;;5.18;2.13;;;;;;;;;;2089477;28;20033;-80
2022/09/23 06:17:25;;;;;;;4.15;1.80;;;;;;;;;;2090477;28;20029;-80
2022/09/23 06:18:44;;;;;;;6.97;2.08;;;;;;;;;;2086975;28;20032;-79
2022/09/23 06:20:04;;;;;;;2.25;1.88;;;;;;;;;;2088059;28;20482;-80
2022/09/23 06:21:22;;;;;;;4.32;1.73;;;;;;;;;;2089530;28;20029;-81
2022/09/23 06:22:41;;;;;;;6.55;2.30;;;;;;;;;;2092329;28;20095;-80
2022/09/23 06:24:01;;;;;;;5.72;1.77;;;;;;;;;;2089040;28;20478;-80
2022/09/23 06:25:21;;;;;;;4.57;2.30;;;;;;;;;;2089084;28;20056;-81
2022/09/23 06:26:41;;;;;;;2.53;1.63;;;;;;;;;;2098554;28;20025;-81
2022/09/23 06:28:01;;;;;;;3.28;1.60;;;;;;;;;;2096606;28;20056;-80
2022/09/23 06:29:20;;;;;;;3.92;2.05;;;;;;;;;;2091569;28;20048;-79
2022/09/23 06:30:39;;;;;;;5.00;2.00;;;;;;;;;;2094367;28;20025;-81
2022/09/23 06:31:58;;;;;;;5.47;1.90;;;;;;;;;;2090217;28;20033;-80
2022/09/23 06:33:17;;;;;;;2.95;1.83;;;;;;;;;;2090981;28;21503;-80
2022/09/23 06:34:36;;;;;;;5.15;1.80;;;;;;;;;;2088736;28;20598;-81
2022/09/23 06:35:56;;;;;;;2.15;1.80;;;;;;;;;;2087504;28;20025;-81
2022/09/23 06:37:15;;;;;;;6.75;1.77;;;;;;;;;;2090602;28;20025;-80
2022/09/23 06:38:37;;;;;;;4.55;1.55;;;;;;;;;;2083623;28;20037;-80
2022/09/23 06:39:57;;;;;;;4.72;1.98;;;;;;;;;;2086475;28;20103;-84
2022/09/23 06:41:16;;;;;;;1.63;1.48;;;;;;;;;;2090701;28;20501;-82
2022/09/23 06:42:35;;;;;;;2.78;1.90;;;;;;;;;;2090203;28;20250;-81
2022/09/23 06:43:54;;;;;;;3.83;1.70;;;;;;;;;;2087699;28;20489;-81
2022/09/23 06:45:13;;;;;;;3.25;1.50;;;;;;;;;;2088206;28;20068;-82
2022/09/23 06:46:32;;;;;;;7.53;2.05;;;;;;;;;;2099770;28;20033;-82
2022/09/23 06:47:55;;;;;;;5.75;2.15;;;;;;;;;;2095427;28;20033;-82
2022/09/23 06:49:14;;;;;;;2.97;1.92;;;;;;;;;;2093154;28;20474;-81
2022/09/23 06:50:33;;;;;;;3.20;1.88;;;;;;;;;;2091264;28;20123;-82
2022/09/23 06:51:54;;;;;;;5.82;1.60;;;;;;;;;;2089396;28;20054;-80
2022/09/23 06:53:14;;;;;;;2.63;1.55;;;;;;;;;;2086187;28;20505;-82
2022/09/23 06:54:33;;;;;;;5.07;2.00;;;;;;;;;;2087289;28;20116;-82
2022/09/23 06:56:01;;;;;;;6.78;1.60;;;;;;;;;;2088751;28;20490;-81
2022/09/23 06:57:20;;;;;;;7.70;1.67;;;;;;;;;;2088211;28;20478;-81
2022/09/23 06:58:39;;;;;;;4.50;1.67;;;;;;;;;;2085681;28;20037;-81
2022/09/23 06:59:58;;;;;;;3.95;1.55;;;;;;;;;;2086191;28;20115;-82
2022/09/23 07:01:18;;;;;;;4.85;2.03;;;;;;;;;;2088119;28;20032;-81
2022/09/23 07:02:39;;;;;;;2.97;1.48;;;;;;;;;;2087309;28;20033;-81
2022/09/23 07:03:59;;;;;;;1.75;1.48;;;;;;;;;;2086912;28;20021;-80
2022/09/23 07:05:18;;;;;;;3.17;1.40;;;;;;;;;;2087511;28;20025;-80
2022/09/23 07:06:37;;;;;;;3.35;1.52;;;;;;;;;;2087902;28;20025;-81
2022/09/23 07:07:55;;;;;;;5.97;1.80;;;;;;;;;;2089777;28;20025;-82
2022/09/23 07:09:14;;;;;;;2.22;1.40;;;;;;;;;;2088285;28;20025;-80
2022/09/23 07:10:33;;;;;;;2.75;1.58;;;;;;;;;;2089079;28;20033;-80
2022/09/23 07:11:53;;;;;;;6.93;1.75;;;;;;;;;;2088310;28;20592;-80
2022/09/23 07:13:11;;;;;;;2.80;1.42;;;;;;;;;;2083812;28;20036;-80
2022/09/23 07:14:30;;;;;;;3.20;1.65;;;;;;;;;;2087827;28;20029;-80
2022/09/23 07:15:50;;;;;;;3.28;1.52;;;;;;;;;;2085470;28;20103;-81
2022/09/23 07:17:09;;;;;;;22.27;3.97;;;;;;;;;;2086128;28;20033;-85
2022/09/23 07:18:29;;;;;;;2.17;1.45;;;;;;;;;;2089180;28;20029;-79
2022/09/23 07:19:48;;;;;;;3.40;1.63;;;;;;;;;;2088018;28;20021;-83
2022/09/23 07:21:08;;;;;;;1.92;1.40;;;;;;;;;;2085090;28;20036;-81
2022/09/23 07:22:28;;;;;;;6.57;1.40;;;;;;;;;;2086704;28;20471;-82
2022/09/23 07:23:48;;;;;;;3.90;1.50;;;;;;;;;;2085995;28;20029;-81
2022/09/23 07:25:10;;;;;;;4.55;1.70;;;;;;;;;;2084485;28;20025;-83
2022/09/23 07:26:29;;;;;;;3.13;1.48;;;;;;;;;;2093048;28;20029;-83
2022/09/23 07:27:48;;;;;;;3.60;1.58;;;;;;;;;;2090848;28;20053;-82
2022/09/23 07:29:11;;;;;;;6.30;1.88;;;;;;;;;;2087498;28;20026;-84
2022/09/23 07:30:30;;;;;;;4.93;1.40;;;;;;;;;;2085216;28;20021;-82
2022/09/23 07:31:49;;;;;;;5.38;1.50;;;;;;;;;;2086552;28;20029;-79
2022/09/23 07:33:08;;;;;;;1.73;1.40;;;;;;;;;;2087678;28;20036;-80
2022/09/23 07:34:27;;;;;;;4.93;1.50;;;;;;;;;;2086306;28;20041;-81
2022/09/23 07:35:46;;;;;;;3.63;1.63;;;;;;;;;;2087424;28;20496;-77
2022/09/23 07:37:05;;;;;;;1.90;1.50;;;;;;;;;;2086696;28;20033;-79
2022/09/23 07:38:28;;;;;;;2.30;1.80;;;;;;;;;;2084939;28;20073;-78
2022/09/23 07:39:47;;;;;;;3.47;1.50;;;;;;;;;;2087041;28;20021;-78
2022/09/23 07:41:07;;;;;;;2.17;1.35;;;;;;;;;;2087788;28;20430;-78
2022/09/23 07:42:26;;;;;;;5.57;1.58;;;;;;;;;;2088726;28;20037;-78
2022/09/23 07:43:46;;;;;;;5.13;1.58;;;;;;;;;;2085958;28;20033;-78
2022/09/23 07:45:06;;;;;;;2.28;1.50;;;;;;;;;;2081668;28;20037;-79
2022/09/23 07:46:26;;;;;;;3.53;1.58;;;;;;;;;;2085312;28;20033;-79
2022/09/23 07:47:45;;;;;;;5.93;1.55;;;;;;;;;;2096651;28;20513;-79
2022/09/23 07:49:04;;;;;;;5.18;1.35;;;;;;;;;;2085386;28;20040;-77
2022/09/23 07:50:23;;;;;;;1.58;1.35;;;;;;;;;;2083563;28;20037;-78
2022/09/23 07:51:45;;;;;;;5.07;1.73;;;;;;;;;;2087645;28;20029;-78
2022/09/23 07:53:06;;;;;;;2.42;1.80;;;;;;;;;;2085649;28;20450;-79
2022/09/23 07:54:28;;;;;;;2.10;1.30;;;;;;;;;;2085372;28;20116;-76
2022/09/23 07:55:54;;;;;;;4.90;1.75;;;;;;;;;;2091208;28;20028;-76
2022/09/23 07:57:12;;;;;;;3.60;1.58;;;;;;;;;;2089043;28;20072;-76
2022/09/23 07:58:32;;;;;;;3.50;1.63;;;;;;;;;;2085328;28;20049;-77
2022/09/23 07:59:51;;;;;;;2.90;1.27;;;;;;;;;;2086480;28;20029;-77
2022/09/23 08:01:11;;;;;;;4.95;1.60;;;;;;;;;;2085260;28;20037;-77
2022/09/23 08:02:30;;;;;;;5.03;1.48;;;;;;;;;;2088050;28;20033;-78
2022/09/23 08:03:49;;;;;;;4.25;1.52;;;;;;;;;;2087115;28;20029;-78
2022/09/23 08:05:08;;;;;;;4.63;1.75;;;;;;;;;;2082250;28;20036;-77
2022/09/23 08:06:27;;;;;;;5.22;1.67;;;;;;;;;;2087466;28;20029;-77
2022/09/23 08:07:48;;;;;;;5.28;1.50;;;;;;;;;;2086825;28;20029;-80
2022/09/23 08:09:08;;;;;;;4.43;1.75;;;;;;;;;;2087098;28;20033;-80
2022/09/23 08:10:27;;;;;;;3.75;2.03;;;;;;;;;;2087592;28;20045;-80